createdAt,value
2023-03-29T00:02:38.025Z,0.90
2023-03-29T00:05:41.000Z,0.90
2023-03-29T00:08:42.462Z,0.90
2023-03-29T00:11:44.893Z,0.75
2023-03-29T00:14:46.466Z,0.93
2023-03-29T00:17:48.073Z,0.80
2023-03-29T00:20:57.477Z,0.60
2023-03-29T00:23:59.593Z,0.65
2023-03-29T00:27:01.464Z,0.73
2023-03-29T00:30:05.457Z,0.80
2023-03-29T00:33:07.334Z,0.80
2023-03-29T00:36:10.231Z,0.82
2023-03-29T00:39:12.111Z,0.70
2023-03-29T00:42:16.588Z,0.70
2023-03-29T00:45:22.646Z,0.70
2023-03-29T00:48:27.171Z,0.70
2023-03-29T00:51:30.504Z,0.77
2023-03-29T00:54:32.876Z,0.60
2023-03-29T00:57:34.683Z,0.75
2023-03-29T01:00:47.809Z,0.80
2023-03-29T01:03:54.640Z,0.77
2023-03-29T01:07:09.244Z,0.80
2023-03-29T01:10:14.476Z,0.82
2023-03-29T01:13:35.066Z,0.88
2023-03-29T01:16:39.898Z,0.90
2023-03-29T01:19:50.774Z,0.80
2023-03-29T01:23:13.905Z,0.65
2023-03-29T01:26:30.472Z,0.90
2023-03-29T01:29:37.266Z,0.77
2023-03-29T01:32:56.991Z,0.77
2023-03-29T01:36:20.109Z,0.70
2023-03-29T01:39:22.010Z,0.60
2023-03-29T01:42:26.572Z,0.75
2023-03-29T01:45:33.990Z,0.70
2023-03-29T01:49:06.811Z,0.70
2023-03-29T01:52:16.942Z,0.70
2023-03-29T01:55:26.404Z,1.02
2023-03-29T01:58:33.941Z,0.80
2023-03-29T02:01:40.534Z,0.50
2023-03-29T02:04:49.997Z,0.90
2023-03-29T02:07:52.848Z,0.70
2023-03-29T02:10:54.540Z,0.80
2023-03-29T02:13:57.561Z,0.82
2023-03-29T02:17:14.747Z,0.80
2023-03-29T02:20:25.743Z,0.90
2023-03-29T02:23:38.756Z,0.80
2023-03-29T02:26:40.713Z,0.70
2023-03-29T02:29:42.236Z,0.63
2023-03-29T02:32:49.212Z,0.60
2023-03-29T02:36:29.366Z,0.73
2023-03-29T02:39:33.632Z,0.77
2023-03-29T02:42:36.155Z,0.82
2023-03-29T02:45:39.161Z,0.80
2023-03-29T22:54:04.968Z,1.80
2023-03-29T22:57:06.510Z,1.80
2023-03-29T23:00:08.898Z,1.90
2023-03-29T23:03:10.817Z,1.80
2023-03-29T23:06:12.280Z,2.10
2023-03-29T23:09:15.945Z,1.50
2023-03-29T23:12:18.106Z,1.55
2023-03-29T23:15:22.816Z,1.40
2023-03-29T23:18:24.857Z,1.73
2023-03-29T23:21:27.815Z,1.70
2023-03-29T23:24:30.310Z,1.45
2023-03-29T23:27:32.650Z,1.60
2023-03-29T23:30:37.004Z,1.40
2023-03-29T23:33:42.540Z,1.30
